Time;durP1;ratioP1;P1;durP2;ratioP2;P2;SDS_P1;SDS_P2;PMS_P1;PMS_P2;Temp;Humidity;BMP_temperature;BMP_pressure;BME280_temperature;BME280_humidity;BME280_pressure;Samples;Min_cycle;Max_cycle;Signal;HPM_P1;HPM_P2
2024/03/16 00:02:31;;;;;;;1.45;0.50;;;13.50;99.90;;;;;;10064559;28;20055;-73
2024/03/16 00:07:21;;;;;;;1.58;0.55;;;13.40;99.90;;;;;;10075680;28;20068;-73
2024/03/16 00:12:14;;;;;;;0.65;0.30;;;13.40;99.90;;;;;;10075347;28;20025;-73
2024/03/16 00:17:05;;;;;;;0.50;0.30;;;13.30;99.90;;;;;;10068820;28;20021;-73
2024/03/16 00:21:56;;;;;;;2.33;0.32;;;13.20;99.90;;;;;;10090063;28;20022;-75
2024/03/16 00:26:47;;;;;;;0.55;0.40;;;13.30;99.90;;;;;;10059598;28;20083;-73
2024/03/16 00:31:38;;;;;;;2.13;0.85;;;13.20;99.90;;;;;;10073193;28;20025;-72
2024/03/16 00:36:30;;;;;;;1.90;0.40;;;13.30;99.90;;;;;;10078352;28;20033;-72
2024/03/16 00:41:21;;;;;;;0.77;0.50;;;13.30;99.90;;;;;;10057339;28;20387;-75
2024/03/16 00:46:13;;;;;;;0.40;0.40;;;13.20;99.90;;;;;;10063122;28;20071;-73
2024/03/16 00:51:03;;;;;;;0.80;0.25;;;13.30;99.90;;;;;;10053823;28;20060;-74
2024/03/16 00:55:55;;;;;;;0.40;0.30;;;13.20;99.90;;;;;;10065252;28;20036;-74
2024/03/16 01:00:45;;;;;;;0.63;0.30;;;13.20;99.90;;;;;;10063607;28;20041;-74
2024/03/16 01:05:36;;;;;;;1.13;0.40;;;13.20;99.90;;;;;;10071212;28;20021;-74
2024/03/16 01:10:26;;;;;;;1.35;0.70;;;13.20;99.90;;;;;;10063030;28;20041;-74
2024/03/16 01:15:17;;;;;;;0.70;0.32;;;13.30;99.90;;;;;;10068304;28;20642;-74
2024/03/16 01:20:09;;;;;;;1.55;0.43;;;13.30;99.90;;;;;;10052743;28;20447;-73
2024/03/16 01:25:00;;;;;;;0.38;0.32;;;13.20;99.90;;;;;;10068582;28;20078;-73
2024/03/16 01:29:51;;;;;;;0.82;0.82;;;13.20;99.90;;;;;;10049746;28;20029;-74
2024/03/16 01:34:41;;;;;;;0.30;0.30;;;13.20;99.90;;;;;;10056636;28;20109;-72
2024/03/16 01:39:32;;;;;;;2.10;0.45;;;13.20;99.90;;;;;;10063850;28;20117;-74
2024/03/16 01:44:23;;;;;;;0.95;0.50;;;13.10;99.90;;;;;;10066410;28;20495;-73
2024/03/16 01:49:14;;;;;;;0.57;0.40;;;13.20;99.90;;;;;;10062971;28;20049;-72
2024/03/16 01:54:08;;;;;;;2.05;0.32;;;13.20;99.90;;;;;;10056884;28;20041;-73
2024/03/16 01:58:58;;;;;;;1.13;0.50;;;13.20;99.90;;;;;;10058476;28;20041;-72
2024/03/16 02:03:49;;;;;;;0.68;0.47;;;13.20;99.90;;;;;;10046901;28;20797;-73
2024/03/16 02:08:40;;;;;;;1.77;0.40;;;13.20;99.90;;;;;;10057315;28;20025;-74
2024/03/16 02:13:30;;;;;;;1.17;0.38;;;13.20;99.90;;;;;;10064856;28;20036;-73
2024/03/16 02:18:21;;;;;;;0.80;0.50;;;13.10;99.90;;;;;;10045239;28;20135;-73
2024/03/16 02:23:12;;;;;;;0.75;0.50;;;13.00;99.90;;;;;;10058529;28;20040;-73
2024/03/16 02:28:03;;;;;;;0.90;0.52;;;13.10;99.90;;;;;;10056137;28;20053;-73
2024/03/16 02:32:53;;;;;;;0.82;0.50;;;13.20;99.90;;;;;;10069773;28;20376;-74
2024/03/16 02:37:44;;;;;;;0.98;0.43;;;13.20;99.90;;;;;;10076543;28;20124;-73
2024/03/16 02:42:35;;;;;;;1.02;0.45;;;13.20;99.90;;;;;;10074107;28;20478;-73
2024/03/16 02:47:25;;;;;;;1.08;0.57;;;13.20;99.90;;;;;;10087525;28;20057;-73
2024/03/16 02:52:16;;;;;;;1.00;0.55;;;13.30;99.90;;;;;;10066178;28;20029;-73
2024/03/16 02:57:07;;;;;;;1.20;0.93;;;13.20;99.90;;;;;;10053954;28;20025;-74
2024/03/16 03:01:57;;;;;;;0.88;0.80;;;13.20;99.90;;;;;;10074963;28;20037;-73
2024/03/16 03:06:48;;;;;;;1.05;0.55;;;13.00;99.90;;;;;;10070152;28;20029;-73
2024/03/16 03:11:38;;;;;;;1.15;0.65;;;12.90;99.90;;;;;;10074376;28;20116;-73
2024/03/16 03:16:29;;;;;;;1.42;0.85;;;12.90;99.90;;;;;;10077227;28;20442;-73
2024/03/16 03:21:20;;;;;;;1.30;0.50;;;12.90;99.90;;;;;;10089209;28;20064;-74
2024/03/16 03:26:11;;;;;;;0.98;0.70;;;13.00;99.90;;;;;;10072704;28;20033;-73
2024/03/16 03:31:06;;;;;;;0.50;0.43;;;13.00;99.90;;;;;;10070531;28;20030;-74
2024/03/16 03:35:57;;;;;;;1.33;0.80;;;13.00;99.90;;;;;;10064261;28;20391;-76
2024/03/16 03:40:47;;;;;;;4.03;0.60;;;13.10;99.90;;;;;;10055409;28;20049;-76
2024/03/16 03:45:49;;;;;;;89.30;46.28;;;13.10;99.90;;;;;;10057151;28;20140;-74
2024/03/16 03:50:41;;;;;;;37.95;23.55;;;13.10;99.90;;;;;;10061211;28;20146;-74
2024/03/16 03:55:32;;;;;;;6.68;3.95;;;13.20;99.90;;;;;;10059333;28;20041;-75
2024/03/16 04:00:23;;;;;;;1.75;1.30;;;13.20;99.90;;;;;;10057559;28;20021;-75
2024/03/16 04:05:14;;;;;;;1.98;1.23;;;13.20;99.90;;;;;;10059115;28;20385;-75
2024/03/16 04:10:06;;;;;;;1.63;1.15;;;13.20;99.90;;;;;;10060937;28;20035;-76
2024/03/16 04:14:57;;;;;;;1.88;0.90;;;13.20;99.90;;;;;;10057857;28;20052;-75
2024/03/16 04:19:49;;;;;;;2.38;0.93;;;13.20;99.90;;;;;;10061732;28;20044;-76
2024/03/16 04:24:39;;;;;;;1.88;0.80;;;13.10;99.90;;;;;;10068677;28;20044;-76
2024/03/16 04:29:33;;;;;;;1.60;0.57;;;13.10;99.90;;;;;;10062941;28;20399;-76
2024/03/16 04:34:25;;;;;;;3.08;0.95;;;13.10;99.90;;;;;;10064181;28;20053;-75
2024/03/16 04:39:16;;;;;;;2.38;1.08;;;13.10;99.90;;;;;;10073595;28;20044;-75
2024/03/16 04:44:07;;;;;;;2.92;1.15;;;13.10;99.90;;;;;;10058337;28;20503;-76
2024/03/16 04:48:58;;;;;;;2.40;0.95;;;13.10;99.90;;;;;;10064823;28;20077;-75
2024/03/16 04:53:48;;;;;;;5.05;1.10;;;13.10;99.90;;;;;;10059050;28;20613;-74
2024/03/16 04:58:39;;;;;;;0.95;0.70;;;13.10;99.90;;;;;;10072570;28;20041;-74
2024/03/16 05:03:30;;;;;;;2.63;0.90;;;13.00;99.90;;;;;;10070639;28;20033;-76
2024/03/16 05:08:21;;;;;;;3.80;1.00;;;13.10;99.90;;;;;;10064473;28;20136;-75
2024/03/16 05:13:11;;;;;;;1.38;1.17;;;13.00;99.90;;;;;;10066885;28;20586;-75
2024/03/16 05:18:02;;;;;;;0.98;0.75;;;13.00;99.90;;;;;;10068429;28;20126;-75
2024/03/16 05:22:53;;;;;;;4.35;1.10;;;13.00;99.90;;;;;;10065190;28;20033;-74
2024/03/16 05:27:44;;;;;;;1.75;0.95;;;13.00;99.90;;;;;;10054054;28;20048;-75
2024/03/16 05:32:34;;;;;;;3.08;0.90;;;13.00;99.90;;;;;;10061860;28;20072;-75
2024/03/16 05:37:25;;;;;;;1.33;0.75;;;13.00;99.90;;;;;;10076462;28;20515;-75
2024/03/16 05:42:16;;;;;;;2.60;0.88;;;12.90;99.90;;;;;;10081598;28;20021;-75
2024/03/16 05:47:07;;;;;;;3.85;1.20;;;13.00;99.90;;;;;;10056975;28;20056;-75
2024/03/16 05:51:57;;;;;;;2.22;0.95;;;12.90;99.90;;;;;;10047916;28;20032;-75
2024/03/16 05:56:49;;;;;;;2.65;0.70;;;13.00;99.90;;;;;;10054472;28;20053;-74
2024/03/16 06:01:41;;;;;;;2.08;1.05;;;13.00;99.90;;;;;;10068039;28;20025;-74
2024/03/16 06:06:32;;;;;;;4.53;2.25;;;13.00;99.90;;;;;;10076578;28;20518;-75
2024/03/16 06:11:23;;;;;;;1.40;1.00;;;13.00;99.90;;;;;;10084561;28;20029;-74
2024/03/16 06:16:13;;;;;;;4.28;1.00;;;13.00;99.90;;;;;;10077488;28;20048;-75
2024/03/16 06:21:04;;;;;;;1.77;1.00;;;13.00;99.90;;;;;;10083834;28;20043;-74
2024/03/16 06:26:03;;;;;;;1.85;0.98;;;13.00;99.90;;;;;;10067440;28;20581;-74
2024/03/16 06:31:07;;;;;;;2.55;0.80;;;13.10;99.90;;;;;;10075160;28;20048;-74
2024/03/16 06:35:58;;;;;;;3.35;2.00;;;13.10;99.90;;;;;;10091060;28;20044;-74
2024/03/16 06:40:52;;;;;;;2.88;1.02;;;13.10;99.90;;;;;;10078457;28;20040;-74
2024/03/16 06:45:48;;;;;;;4.05;1.75;;;13.20;99.90;;;;;;10060043;28;20048;-74
2024/03/16 06:50:39;;;;;;;3.03;0.70;;;13.10;99.90;;;;;;10059904;28;20036;-74
2024/03/16 06:55:30;;;;;;;3.55;0.98;;;13.10;99.90;;;;;;10068187;28;20037;-75
2024/03/16 07:00:21;;;;;;;1.88;0.85;;;13.20;99.90;;;;;;10070739;28;20044;-74
2024/03/16 07:05:12;;;;;;;2.15;0.95;;;13.10;99.90;;;;;;10067014;28;20031;-75
2024/03/16 07:10:05;;;;;;;3.97;1.25;;;13.00;99.90;;;;;;10072309;28;20392;-75
2024/03/16 07:14:56;;;;;;;2.95;1.55;;;13.00;99.90;;;;;;10084037;28;20410;-77
2024/03/16 07:19:47;;;;;;;5.57;1.02;;;13.00;99.90;;;;;;10056303;28;20038;-75
2024/03/16 07:24:38;;;;;;;2.45;0.82;;;13.00;99.90;;;;;;10069757;28;20100;-75
2024/03/16 07:29:28;;;;;;;2.42;0.60;;;12.90;99.90;;;;;;10056991;28;20039;-77
2024/03/16 07:34:19;;;;;;;3.42;1.00;;;12.80;99.90;;;;;;10064548;28;20051;-78
2024/03/16 07:39:11;;;;;;;1.23;0.60;;;12.80;99.90;;;;;;10060617;28;20452;-77
2024/03/16 07:44:02;;;;;;;2.92;1.17;;;12.90;99.90;;;;;;10067838;28;20428;-75
2024/03/16 07:48:53;;;;;;;5.30;1.42;;;13.10;99.90;;;;;;10077181;28;20580;-77
2024/03/16 07:53:44;;;;;;;3.10;1.00;;;13.10;99.90;;;;;;10067114;28;20032;-74
2024/03/16 07:58:36;;;;;;;3.00;0.90;;;13.20;99.90;;;;;;10060454;28;20029;-78
2024/03/16 08:03:27;;;;;;;3.15;1.02;;;13.20;99.90;;;;;;10072520;28;20550;-77
2024/03/16 08:08:17;;;;;;;2.10;0.70;;;13.20;99.90;;;;;;10056928;28;20056;-75
2024/03/16 08:13:08;;;;;;;4.15;1.23;;;13.20;99.90;;;;;;10065634;28;20067;-76
2024/03/16 08:18:00;;;;;;;1.15;0.55;;;13.30;99.90;;;;;;10058419;28;20052;-74
2024/03/16 08:22:54;;;;;;;2.88;1.08;;;13.40;99.90;;;;;;10064044;28;20021;-76
2024/03/16 08:27:51;;;;;;;0.90;0.70;;;13.50;99.90;;;;;;10054608;28;20139;-75
2024/03/16 08:32:42;;;;;;;1.02;0.55;;;13.60;99.90;;;;;;10064557;28;20022;-76
2024/03/16 08:37:33;;;;;;;0.88;0.40;;;13.60;99.90;;;;;;10071404;28;20510;-75
2024/03/16 08:42:24;;;;;;;2.13;0.60;;;13.60;99.90;;;;;;10062357;28;20148;-76
2024/03/16 08:47:15;;;;;;;1.00;0.38;;;13.70;99.90;;;;;;10073834;28;20232;-77
2024/03/16 08:52:06;;;;;;;1.50;0.90;;;13.80;99.90;;;;;;10050881;28;20500;-76
2024/03/16 08:56:57;;;;;;;0.30;0.30;;;13.80;99.90;;;;;;10052400;28;20038;-73
2024/03/16 09:01:48;;;;;;;1.02;0.32;;;13.70;99.90;;;;;;10063392;28;20739;-76
2024/03/16 09:06:40;;;;;;;0.65;0.35;;;13.70;99.90;;;;;;10071252;28;20063;-75
2024/03/16 09:11:31;;;;;;;0.32;0.30;;;13.70;99.90;;;;;;10080052;28;20111;-75
2024/03/16 09:16:22;;;;;;;1.05;0.50;;;13.80;99.90;;;;;;10081015;28;20127;-77
2024/03/16 09:21:18;;;;;;;0.28;0.20;;;13.90;99.90;;;;;;10083361;28;20457;-77
2024/03/16 09:26:08;;;;;;;1.88;0.35;;;13.80;99.90;;;;;;10679535;22;20140;-73
2024/03/16 09:31:11;;;;;;;1.08;0.98;;;13.70;99.90;;;;;;10099314;28;20048;-77
2024/03/16 09:36:03;;;;;;;0.77;0.30;;;13.70;99.90;;;;;;10088743;28;20052;-78
2024/03/16 09:40:55;;;;;;;0.70;0.52;;;13.80;99.90;;;;;;10104976;28;20110;-75
2024/03/16 09:45:50;;;;;;;0.80;0.60;;;13.90;99.90;;;;;;10210373;22;20053;-75
2024/03/16 09:50:49;;;;;;;0.33;0.30;;;13.90;99.90;;;;;;10051861;28;20045;-74
2024/03/16 09:55:43;;;;;;;0.13;0.13;;;14.00;99.90;;;;;;10058083;28;20040;-78
2024/03/16 10:00:38;;;;;;;1.33;0.70;;;14.00;99.90;;;;;;10061133;28;20048;-77
2024/03/16 10:05:32;;;;;;;0.28;0.22;;;14.00;99.90;;;;;;10061247;28;20025;-78
2024/03/16 10:10:23;;;;;;;0.70;0.40;;;14.00;99.90;;;;;;10055159;28;20037;-76
2024/03/16 10:15:20;;;;;;;0.65;0.45;;;14.10;99.90;;;;;;10052508;28;20112;-75
2024/03/16 10:20:15;;;;;;;2.13;0.55;;;14.20;99.90;;;;;;10061942;28;20525;-76
2024/03/16 10:25:09;;;;;;;0.88;0.47;;;14.10;99.90;;;;;;10061667;28;20633;-75
2024/03/16 10:30:00;;;;;;;0.57;0.40;;;14.20;99.90;;;;;;10048822;28;20140;-77
2024/03/16 10:35:17;;;;;;;1.15;0.55;;;14.30;99.90;;;;;;10059887;28;20153;-77
2024/03/16 10:40:17;;;;;;;0.73;0.40;;;14.40;99.90;;;;;;10061381;28;20164;-75
2024/03/16 10:45:13;;;;;;;1.77;0.60;;;14.40;99.90;;;;;;10064171;28;20035;-77
2024/03/16 10:56:00;;;;;;;0.43;0.30;;;14.50;99.90;;;;;;10056943;28;20087;-76
2024/03/16 11:01:28;;;;;;;0.30;0.30;;;14.50;99.90;;;;;;10059494;28;20065;-75
2024/03/16 11:06:28;;;;;;;0.17;0.15;;;14.40;99.90;;;;;;10051295;28;20479;-75
2024/03/16 11:11:32;;;;;;;0.30;0.30;;;14.30;99.90;;;;;;10054129;28;20038;-76
2024/03/16 11:21:23;;;;;;;1.83;0.60;;;14.60;99.90;;;;;;10220151;22;20101;-75
2024/03/16 11:26:26;;;;;;;2.97;0.50;;;14.70;99.90;;;;;;10016585;28;20030;-76
2024/03/16 11:31:46;;;;;;;0.52;0.20;;;14.70;99.90;;;;;;10022507;28;20027;-76
2024/03/16 11:36:44;;;;;;;0.32;0.20;;;14.90;99.90;;;;;;10024627;28;20030;-76
2024/03/16 11:41:35;;;;;;;0.55;0.30;;;14.90;99.90;;;;;;10044009;23;20137;-76
2024/03/16 11:46:35;;;;;;;0.50;0.45;;;14.90;99.90;;;;;;10022937;28;20104;-75
2024/03/16 11:51:29;;;;;;;1.25;0.47;;;15.10;99.90;;;;;;10035024;28;20058;-76
2024/03/16 11:56:22;;;;;;;1.17;0.50;;;15.20;99.90;;;;;;10019038;28;20026;-75
2024/03/16 12:01:18;;;;;;;4.22;1.00;;;15.20;99.90;;;;;;10014397;28;20049;-77
2024/03/16 12:06:09;;;;;;;;;;;15.30;99.90;;;;;;10019216;28;20033;-76
2024/03/16 12:11:00;;;;;;;0.65;0.25;;;15.30;99.90;;;;;;10020992;28;20005;-79
2024/03/16 12:15:52;;;;;;;0.22;0.22;;;15.40;99.90;;;;;;10030894;28;20101;-79
2024/03/16 12:20:45;;;;;;;0.70;0.70;;;15.30;99.90;;;;;;10009604;28;20034;-77
2024/03/16 12:25:38;;;;;;;0.50;0.38;;;15.20;99.90;;;;;;10015923;28;20036;-79
2024/03/16 12:30:34;;;;;;;0.75;0.20;;;15.30;99.90;;;;;;10011415;28;20064;-77
2024/03/16 12:35:28;;;;;;;0.63;0.30;;;15.50;99.90;;;;;;10010186;28;20014;-77
2024/03/16 12:40:19;;;;;;;0.50;0.50;;;15.60;99.90;;;;;;10021279;28;20115;-77
2024/03/16 12:45:10;;;;;;;1.42;0.50;;;15.50;99.90;;;;;;10010994;28;20041;-77
2024/03/16 12:50:00;;;;;;;0.20;0.20;;;15.50;99.90;;;;;;10012085;28;20025;-76
2024/03/16 12:54:52;;;;;;;1.27;0.28;;;15.50;99.90;;;;;;10019114;28;20403;-78
2024/03/16 12:59:43;;;;;;;0.25;0.20;;;15.40;99.90;;;;;;10011477;28;20038;-76
2024/03/16 13:04:34;;;;;;;0.50;0.30;;;15.40;99.90;;;;;;10012313;28;20037;-75
2024/03/16 13:09:25;;;;;;;0.30;0.30;;;15.30;99.90;;;;;;10011508;28;20131;-75
2024/03/16 13:14:16;;;;;;;1.90;0.50;;;15.30;99.90;;;;;;10010234;28;20550;-77
2024/03/16 13:19:07;;;;;;;0.45;0.40;;;15.30;99.90;;;;;;10005233;28;20040;-76
2024/03/16 13:23:59;;;;;;;3.10;0.80;;;15.20;99.90;;;;;;10015383;28;20018;-75
2024/03/16 13:28:50;;;;;;;2.38;1.65;;;15.40;99.90;;;;;;10015752;28;20030;-75
2024/03/16 13:33:41;;;;;;;1.38;0.60;;;15.50;99.90;;;;;;10018330;28;20026;-77
2024/03/16 13:38:32;;;;;;;0.60;0.43;;;15.70;99.90;;;;;;10015364;28;20095;-77
2024/03/16 13:43:23;;;;;;;0.90;0.60;;;15.90;99.90;;;;;;10010950;28;20049;-76
2024/03/16 13:48:13;;;;;;;1.15;0.50;;;15.90;99.90;;;;;;10012758;28;20040;-77
2024/03/16 13:53:04;;;;;;;0.93;0.50;;;16.30;99.90;;;;;;10008280;28;20400;-75
2024/03/16 13:57:56;;;;;;;1.30;0.30;;;16.20;99.90;;;;;;10016542;28;20494;-76
2024/03/16 14:02:47;;;;;;;0.30;0.30;;;16.10;99.90;;;;;;10009169;28;20587;-75
2024/03/16 14:07:37;;;;;;;0.28;0.25;;;16.20;99.90;;;;;;10028918;28;20128;-77
2024/03/16 14:12:28;;;;;;;13.35;5.13;;;16.30;99.90;;;;;;10015963;28;20040;-77
2024/03/16 14:17:19;;;;;;;3.58;1.63;;;16.60;99.90;;;;;;10011699;28;20029;-76
2024/03/16 14:22:10;;;;;;;1.13;0.40;;;16.70;99.90;;;;;;10011022;28;20035;-76
2024/03/16 14:27:00;;;;;;;0.65;0.55;;;17.30;99.90;;;;;;10018327;28;20116;-75
2024/03/16 14:31:51;;;;;;;0.40;0.40;;;16.90;99.90;;;;;;10018348;28;20019;-77
2024/03/16 14:36:42;;;;;;;0.30;0.30;;;16.70;99.90;;;;;;10013153;28;20109;-76
2024/03/16 14:41:33;;;;;;;8.30;5.13;;;16.50;99.90;;;;;;10017856;28;20361;-78
2024/03/16 14:46:23;;;;;;;25.70;13.80;;;16.30;99.90;;;;;;10025485;28;20034;-76
2024/03/16 14:51:15;;;;;;;3.20;1.55;;;16.30;99.90;;;;;;10042169;28;20403;-76
2024/03/16 14:56:06;;;;;;;1.35;0.85;;;16.30;99.90;;;;;;10019056;28;20057;-75
2024/03/16 15:00:57;;;;;;;0.88;0.60;;;16.30;99.90;;;;;;10022390;28;20107;-76
2024/03/16 15:05:49;;;;;;;1.05;0.90;;;16.50;99.90;;;;;;10020244;28;20030;-76
2024/03/16 15:10:40;;;;;;;2.55;0.60;;;16.30;99.90;;;;;;10015332;28;20121;-75
2024/03/16 15:15:30;;;;;;;0.93;0.65;;;16.00;99.90;;;;;;10011157;28;20113;-77
2024/03/16 15:20:21;;;;;;;0.88;0.70;;;16.20;99.90;;;;;;10020382;28;20045;-77
2024/03/16 15:25:20;;;;;;;1.23;0.60;;;17.30;99.90;;;;;;10015063;28;20026;-73
2024/03/16 15:30:10;;;;;;;0.85;0.40;;;18.20;99.90;;;;;;10015973;28;20033;-74
2024/03/16 15:35:01;;;;;;;0.30;0.30;;;18.40;99.90;;;;;;10025385;28;20107;-74
2024/03/16 15:39:52;;;;;;;0.80;0.50;;;17.50;99.90;;;;;;10018479;28;20046;-74
2024/03/16 15:44:43;;;;;;;0.50;0.50;;;16.80;99.90;;;;;;10020649;28;20045;-73
2024/03/16 15:49:33;;;;;;;0.40;0.40;;;16.50;99.90;;;;;;10021199;28;20030;-73
2024/03/16 15:54:25;;;;;;;0.90;0.50;;;16.30;99.90;;;;;;10029047;28;20072;-73
2024/03/16 15:59:15;;;;;;;0.47;0.38;;;16.10;99.90;;;;;;10018854;28;20033;-75
2024/03/16 16:04:07;;;;;;;1.10;0.40;;;16.00;99.90;;;;;;10018109;28;20030;-84
2024/03/16 16:08:58;;;;;;;0.98;0.63;;;16.00;99.90;;;;;;10007103;28;20058;-75
2024/03/16 16:13:49;;;;;;;0.63;0.47;;;16.00;99.90;;;;;;10011528;28;20392;-74
2024/03/16 16:18:41;;;;;;;0.82;0.55;;;16.00;99.90;;;;;;10004427;28;20050;-76
2024/03/16 16:23:32;;;;;;;0.85;0.73;;;16.10;99.90;;;;;;10002403;28;20030;-75
2024/03/16 16:28:23;;;;;;;0.88;0.50;;;16.30;99.90;;;;;;10006765;28;20038;-74
2024/03/16 16:33:14;;;;;;;1.33;0.32;;;16.40;99.90;;;;;;10005817;28;20030;-74
2024/03/16 16:38:04;;;;;;;2.03;0.85;;;16.40;99.90;;;;;;10011912;28;20034;-74
2024/03/16 16:42:55;;;;;;;1.20;0.85;;;16.30;99.90;;;;;;10007082;28;20129;-74
2024/03/16 16:47:46;;;;;;;1.45;0.70;;;16.20;99.90;;;;;;10027656;28;20451;-76
2024/03/16 16:52:37;;;;;;;1.13;0.57;;;16.10;99.90;;;;;;10008580;28;20109;-75
2024/03/16 16:57:28;;;;;;;2.03;1.08;;;16.00;99.90;;;;;;10009669;28;20030;-74
2024/03/16 17:02:19;;;;;;;1.00;0.70;;;15.90;99.90;;;;;;10018859;28;20036;-73
2024/03/16 17:07:12;;;;;;;1.38;0.80;;;15.80;99.90;;;;;;10013408;28;20037;-74
2024/03/16 17:12:03;;;;;;;1.10;0.57;;;15.90;99.90;;;;;;10017762;28;20053;-74
2024/03/16 17:16:57;;;;;;;1.15;0.70;;;15.80;99.90;;;;;;10011540;28;20073;-74
2024/03/16 17:21:48;;;;;;;1.27;0.68;;;15.70;99.90;;;;;;10015446;28;20061;-74
2024/03/16 17:26:38;;;;;;;2.40;0.55;;;15.70;99.90;;;;;;10010829;28;20060;-75
2024/03/16 17:31:29;;;;;;;2.65;0.90;;;15.70;99.90;;;;;;10016211;28;20030;-74
2024/03/16 17:36:20;;;;;;;2.30;1.05;;;15.70;99.90;;;;;;10013520;28;20030;-74
2024/03/16 17:41:11;;;;;;;1.42;0.90;;;15.60;99.90;;;;;;10018146;28;20049;-73
2024/03/16 17:46:03;;;;;;;2.53;1.25;;;15.70;99.90;;;;;;10013747;28;20030;-73
2024/03/16 17:50:53;;;;;;;2.05;1.13;;;15.70;99.90;;;;;;10018369;28;20034;-74
2024/03/16 17:55:44;;;;;;;1.50;1.05;;;15.70;99.90;;;;;;10013557;28;20030;-73
2024/03/16 18:00:35;;;;;;;5.45;1.90;;;15.70;99.90;;;;;;10011319;28;20395;-73
2024/03/16 18:05:26;;;;;;;3.65;1.80;;;15.60;99.90;;;;;;10016706;28;20022;-76
2024/03/16 18:10:18;;;;;;;3.92;1.67;;;15.60;99.90;;;;;;10022826;28;20459;-73
2024/03/16 18:15:11;;;;;;;3.08;1.38;;;15.60;99.90;;;;;;10013901;28;20105;-75
2024/03/16 18:20:01;;;;;;;2.65;1.65;;;15.60;99.90;;;;;;10025548;28;20411;-75
2024/03/16 18:24:54;;;;;;;3.85;1.30;;;15.60;99.90;;;;;;10019214;28;20041;-76
2024/03/16 18:29:44;;;;;;;3.72;1.90;;;15.50;99.90;;;;;;10018108;28;20038;-74
2024/03/16 18:34:35;;;;;;;3.22;1.60;;;15.50;99.90;;;;;;10020753;28;20021;-75
2024/03/16 18:39:26;;;;;;;6.95;3.10;;;15.40;99.90;;;;;;10021981;28;20115;-74
2024/03/16 18:44:17;;;;;;;5.55;2.67;;;15.40;99.90;;;;;;10016811;28;20525;-75
2024/03/16 18:49:08;;;;;;;2.70;1.63;;;15.40;99.90;;;;;;10036696;28;20179;-75
2024/03/16 18:53:59;;;;;;;6.10;1.67;;;15.30;99.90;;;;;;10031428;28;20025;-74
2024/03/16 18:58:50;;;;;;;3.97;1.80;;;15.30;99.90;;;;;;10036427;28;20041;-73
2024/03/16 19:03:41;;;;;;;3.95;1.88;;;15.30;99.90;;;;;;10032096;28;20040;-73
2024/03/16 19:08:32;;;;;;;6.35;2.33;;;15.20;99.90;;;;;;10035833;28;20030;-73
2024/03/16 19:13:23;;;;;;;4.22;1.50;;;15.20;99.90;;;;;;10026534;28;20834;-73
2024/03/16 19:18:14;;;;;;;4.75;2.50;;;15.20;99.90;;;;;;10019995;28;20034;-75
2024/03/16 19:23:05;;;;;;;2.85;2.10;;;15.20;99.90;;;;;;10022728;28;20017;-74
2024/03/16 19:27:56;;;;;;;5.60;2.00;;;15.10;99.90;;;;;;10018021;28;20451;-73
2024/03/16 19:32:46;;;;;;;2.03;1.40;;;15.10;99.90;;;;;;10018395;28;20133;-73
2024/03/16 19:37:37;;;;;;;4.90;2.45;;;15.00;99.90;;;;;;10009652;28;20041;-73
2024/03/16 19:42:28;;;;;;;2.72;2.00;;;15.00;99.90;;;;;;10023183;28;20399;-75
2024/03/16 19:47:18;;;;;;;2.88;1.50;;;15.10;99.90;;;;;;10026286;28;20033;-73
2024/03/16 19:52:10;;;;;;;126.03;62.60;;;15.00;99.90;;;;;;10019559;28;20022;-73
2024/03/16 19:57:01;;;;;;;36.00;20.48;;;15.00;99.90;;;;;;10012988;28;20091;-72
2024/03/16 20:01:52;;;;;;;6.82;3.55;;;15.00;99.90;;;;;;10016474;28;20091;-73
2024/03/16 20:06:42;;;;;;;16.17;8.52;;;14.90;99.90;;;;;;10018934;28;20636;-74
2024/03/16 20:11:33;;;;;;;101.95;50.13;;;14.90;99.90;;;;;;10012911;28;20034;-76
2024/03/16 20:16:24;;;;;;;15.15;9.07;;;15.00;99.90;;;;;;10013985;28;20029;-74
2024/03/16 20:21:14;;;;;;;4.82;3.22;;;14.90;99.90;;;;;;10015927;28;20042;-74
2024/03/16 20:26:06;;;;;;;5.00;2.90;;;14.90;99.90;;;;;;10023850;28;20022;-72
2024/03/16 20:30:57;;;;;;;6.07;2.97;;;14.80;99.90;;;;;;10018790;28;20037;-72
2024/03/16 20:35:51;;;;;;;8.35;3.25;;;14.80;99.90;;;;;;10018758;28;20116;-72
2024/03/16 20:40:41;;;;;;;3.47;2.60;;;14.70;99.90;;;;;;10015484;28;20080;-73
2024/03/16 20:45:32;;;;;;;5.50;2.80;;;14.70;99.90;;;;;;10005192;28;20526;-72
2024/03/16 20:50:25;;;;;;;4.80;2.65;;;14.70;99.90;;;;;;10014416;28;20042;-73
2024/03/16 20:55:16;;;;;;;3.20;2.05;;;14.60;99.90;;;;;;10004895;28;20026;-72
2024/03/16 21:00:11;;;;;;;9.05;2.90;;;14.70;99.90;;;;;;10016013;28;20407;-72
2024/03/16 21:05:06;;;;;;;4.30;2.67;;;14.60;99.90;;;;;;10016428;28;20544;-72
2024/03/16 21:09:59;;;;;;;5.72;3.22;;;14.60;99.90;;;;;;10015023;28;20042;-71
2024/03/16 21:14:49;;;;;;;7.68;3.00;;;14.50;99.90;;;;;;10019274;28;20025;-72
2024/03/16 21:19:40;;;;;;;4.97;2.33;;;14.50;99.90;;;;;;10013584;28;20042;-73
2024/03/16 21:24:32;;;;;;;4.13;2.42;;;14.50;99.90;;;;;;10021496;28;20042;-72
2024/03/16 21:29:22;;;;;;;3.22;1.88;;;14.40;99.90;;;;;;10032836;28;20034;-72
2024/03/16 21:34:13;;;;;;;2.90;2.08;;;14.30;99.90;;;;;;10036570;28;20170;-72
2024/03/16 21:39:04;;;;;;;4.25;2.92;;;14.30;99.90;;;;;;10043020;28;20133;-72
2024/03/16 21:43:54;;;;;;;4.28;2.28;;;14.30;99.90;;;;;;10029070;28;20046;-73
2024/03/16 21:48:46;;;;;;;5.90;2.30;;;14.30;99.90;;;;;;10024318;28;20034;-73
2024/03/16 21:53:37;;;;;;;4.57;2.08;;;14.20;99.90;;;;;;10023795;28;20490;-73
2024/03/16 21:58:28;;;;;;;5.38;2.83;;;14.20;99.90;;;;;;10025937;28;20037;-74
2024/03/16 22:03:19;;;;;;;4.45;2.50;;;14.20;99.90;;;;;;10021434;28;20026;-73
2024/03/16 22:08:10;;;;;;;5.05;2.17;;;14.30;99.90;;;;;;10032306;28;20047;-73
2024/03/16 22:13:04;;;;;;;5.20;2.92;;;14.30;99.90;;;;;;10024255;28;20058;-73
2024/03/16 22:17:58;;;;;;;3.75;2.38;;;14.20;99.90;;;;;;10021811;28;20045;-73
2024/03/16 22:22:53;;;;;;;3.47;2.45;;;14.20;99.90;;;;;;10021203;28;20117;-72
2024/03/16 22:27:48;;;;;;;5.53;2.60;;;14.20;99.90;;;;;;10023227;28;20022;-71
2024/03/16 22:32:39;;;;;;;3.67;2.40;;;14.20;99.90;;;;;;10021819;28;20033;-73
2024/03/16 22:37:30;;;;;;;4.28;2.53;;;14.20;99.90;;;;;;10028953;28;20393;-73
2024/03/16 22:42:20;;;;;;;5.00;2.70;;;14.10;99.90;;;;;;10021505;28;20133;-73
2024/03/16 22:47:14;;;;;;;5.80;3.90;;;14.10;99.90;;;;;;10022709;28;20037;-72
2024/03/16 22:52:05;;;;;;;4.45;2.83;;;14.00;99.90;;;;;;10033938;28;20466;-72
2024/03/16 22:56:55;;;;;;;5.40;2.67;;;13.90;99.90;;;;;;10035534;28;20087;-72
2024/03/16 23:01:46;;;;;;;5.40;3.30;;;13.90;99.90;;;;;;10041461;28;20558;-73
2024/03/16 23:06:37;;;;;;;7.07;2.95;;;13.90;99.90;;;;;;10048011;28;20495;-73
2024/03/16 23:11:28;;;;;;;6.32;2.97;;;13.90;99.90;;;;;;10053253;28;20040;-73
2024/03/16 23:16:19;;;;;;;6.70;2.78;;;14.00;99.90;;;;;;10027598;28;20192;-73
2024/03/16 23:21:10;;;;;;;6.97;3.13;;;13.90;99.90;;;;;;10028591;28;20639;-73
2024/03/16 23:26:04;;;;;;;6.60;3.92;;;13.80;99.90;;;;;;10023374;28;20117;-73
2024/03/16 23:30:55;;;;;;;5.72;3.88;;;13.80;99.90;;;;;;10011281;28;20109;-72
2024/03/16 23:35:49;;;;;;;4.05;2.75;;;13.70;99.90;;;;;;10017816;28;20508;-73
2024/03/16 23:40:42;;;;;;;5.00;2.67;;;13.70;99.90;;;;;;10017060;28;20062;-73
2024/03/16 23:45:44;;;;;;;7.28;3.13;;;13.70;99.90;;;;;;10018725;28;20038;-72
2024/03/16 23:50:38;;;;;;;4.60;3.05;;;13.70;99.90;;;;;;10019071;28;20037;-72
2024/03/16 23:55:29;;;;;;;5.38;3.10;;;13.60;99.90;;;;;;10018329;28;20038;-72
